sensor_id;sensor_type;location;lat;lon;timestamp;pressure;altitude;pressure_sealevel;temperature;humidity
39265;BME280;42646;51.910;7.724;2023-06-10T00:00:04;100944.13;;;20.05;nan
39265;BME280;42646;51.910;7.724;2023-06-10T00:02:41;100944.28;;;20.04;nan
39265;BME280;42646;51.910;7.724;2023-06-10T00:05:10;100945.34;;;20.02;nan
39265;BME280;42646;51.910;7.724;2023-06-10T00:07:37;100944.50;;;20.02;nan
39265;BME280;42646;51.910;7.724;2023-06-10T00:10:06;100943.88;;;20.00;nan
39265;BME280;42646;51.910;7.724;2023-06-10T00:12:36;100944.06;;;19.98;nan
39265;BME280;42646;51.910;7.724;2023-06-10T00:15:06;100943.41;;;19.96;nan
39265;BME280;42646;51.910;7.724;2023-06-10T00:17:34;100944.63;;;19.94;nan
39265;BME280;42646;51.910;7.724;2023-06-10T00:20:08;100948.53;;;19.91;nan
39265;BME280;42646;51.910;7.724;2023-06-10T00:22:38;100945.22;;;19.89;nan
39265;BME280;42646;51.910;7.724;2023-06-10T00:25:14;100950.97;;;19.86;nan
39265;BME280;42646;51.910;7.724;2023-06-10T00:27:43;100944.94;;;19.84;nan
39265;BME280;42646;51.910;7.724;2023-06-10T00:30:11;100949.91;;;19.81;nan
39265;BME280;42646;51.910;7.724;2023-06-10T00:32:40;100939.69;;;19.76;nan
39265;BME280;42646;51.910;7.724;2023-06-10T00:35:09;100945.44;;;19.73;nan
39265;BME280;42646;51.910;7.724;2023-06-10T00:38:02;100949.56;;;19.69;nan
39265;BME280;42646;51.910;7.724;2023-06-10T00:40:33;100949.31;;;19.64;nan
39265;BME280;42646;51.910;7.724;2023-06-10T00:43:05;100938.03;;;19.60;nan
39265;BME280;42646;51.910;7.724;2023-06-10T00:45:57;100952.91;;;19.56;nan
39265;BME280;42646;51.910;7.724;2023-06-10T00:48:49;100948.09;;;19.52;nan
39265;BME280;42646;51.910;7.724;2023-06-10T00:51:19;100944.28;;;19.46;nan
39265;BME280;42646;51.910;7.724;2023-06-10T00:53:48;100944.66;;;19.43;nan
39265;BME280;42646;51.910;7.724;2023-06-10T00:56:16;100952.75;;;19.43;nan
39265;BME280;42646;51.910;7.724;2023-06-10T00:58:44;100949.78;;;19.38;nan
39265;BME280;42646;51.910;7.724;2023-06-10T01:01:13;100952.19;;;19.33;nan
39265;BME280;42646;51.910;7.724;2023-06-10T01:03:41;100950.38;;;19.33;nan
39265;BME280;42646;51.910;7.724;2023-06-10T01:06:23;100942.63;;;19.30;nan
39265;BME280;42646;51.910;7.724;2023-06-10T01:09:02;100944.41;;;19.23;nan
39265;BME280;42646;51.910;7.724;2023-06-10T01:11:36;100951.00;;;19.20;nan
39265;BME280;42646;51.910;7.724;2023-06-10T01:14:07;100954.09;;;19.17;nan
39265;BME280;42646;51.910;7.724;2023-06-10T01:16:36;100959.00;;;19.14;nan
39265;BME280;42646;51.910;7.724;2023-06-10T01:19:09;100952.97;;;19.12;nan
39265;BME280;42646;51.910;7.724;2023-06-10T01:21:40;100967.84;;;19.08;nan
39265;BME280;42646;51.910;7.724;2023-06-10T01:24:09;100964.50;;;19.06;nan
39265;BME280;42646;51.910;7.724;2023-06-10T01:26:38;100964.03;;;19.02;nan
39265;BME280;42646;51.910;7.724;2023-06-10T01:29:14;100968.97;;;18.99;nan
39265;BME280;42646;51.910;7.724;2023-06-10T01:31:50;100971.41;;;18.93;nan
39265;BME280;42646;51.910;7.724;2023-06-10T01:34:20;100976.31;;;18.90;nan
39265;BME280;42646;51.910;7.724;2023-06-10T01:36:55;100974.16;;;18.85;nan
39265;BME280;42646;51.910;7.724;2023-06-10T01:39:26;100969.34;;;18.81;nan
39265;BME280;42646;51.910;7.724;2023-06-10T01:41:55;100976.31;;;18.75;nan
39265;BME280;42646;51.910;7.724;2023-06-10T01:44:24;100978.53;;;18.72;nan
39265;BME280;42646;51.910;7.724;2023-06-10T01:47:16;100971.97;;;18.66;nan
39265;BME280;42646;51.910;7.724;2023-06-10T01:49:44;100968.16;;;18.60;nan
39265;BME280;42646;51.910;7.724;2023-06-10T01:52:13;100974.06;;;18.56;nan
39265;BME280;42646;51.910;7.724;2023-06-10T01:54:42;100970.28;;;18.50;nan
39265;BME280;42646;51.910;7.724;2023-06-10T01:57:13;100974.53;;;18.45;nan
39265;BME280;42646;51.910;7.724;2023-06-10T01:59:43;100969.69;;;18.40;nan
39265;BME280;42646;51.910;7.724;2023-06-10T02:02:14;100976.44;;;18.36;nan
39265;BME280;42646;51.910;7.724;2023-06-10T02:04:42;100973.47;;;18.31;nan
39265;BME280;42646;51.910;7.724;2023-06-10T02:07:15;100968.44;;;18.28;nan
39265;BME280;42646;51.910;7.724;2023-06-10T02:09:43;100966.09;;;18.25;nan
39265;BME280;42646;51.910;7.724;2023-06-10T02:12:10;100968.69;;;18.18;nan
39265;BME280;42646;51.910;7.724;2023-06-10T02:14:40;100969.91;;;18.15;nan
39265;BME280;42646;51.910;7.724;2023-06-10T02:17:10;100976.66;;;18.11;nan
39265;BME280;42646;51.910;7.724;2023-06-10T02:19:41;100984.25;;;18.08;nan
39265;BME280;42646;51.910;7.724;2023-06-10T02:22:10;100983.59;;;18.06;nan
39265;BME280;42646;51.910;7.724;2023-06-10T02:24:39;100983.97;;;18.03;nan
39265;BME280;42646;51.910;7.724;2023-06-10T02:27:07;100984.97;;;18.02;nan
39265;BME280;42646;51.910;7.724;2023-06-10T02:29:36;100979.94;;;17.99;nan
39265;BME280;42646;51.910;7.724;2023-06-10T02:32:05;100982.97;;;17.96;nan
39265;BME280;42646;51.910;7.724;2023-06-10T02:34:36;100989.56;;;17.93;nan
39265;BME280;42646;51.910;7.724;2023-06-10T02:37:07;100988.25;;;17.89;nan
39265;BME280;42646;51.910;7.724;2023-06-10T02:39:35;100988.63;;;17.86;nan
39265;BME280;42646;51.910;7.724;2023-06-10T02:42:09;100986.06;;;17.84;nan
39265;BME280;42646;51.910;7.724;2023-06-10T02:44:38;100987.28;;;17.82;nan
39265;BME280;42646;51.910;7.724;2023-06-10T02:47:08;100994.84;;;17.78;nan
39265;BME280;42646;51.910;7.724;2023-06-10T02:49:37;100994.22;;;17.76;nan
39265;BME280;42646;51.910;7.724;2023-06-10T02:52:05;100992.72;;;17.74;nan
39265;BME280;42646;51.910;7.724;2023-06-10T02:54:35;100997.56;;;17.70;nan
39265;BME280;42646;51.910;7.724;2023-06-10T02:57:05;101001.63;;;17.66;nan
39265;BME280;42646;51.910;7.724;2023-06-10T02:59:36;100997.44;;;17.63;nan
39265;BME280;42646;51.910;7.724;2023-06-10T03:02:04;100989.72;;;17.60;nan
39265;BME280;42646;51.910;7.724;2023-06-10T03:04:39;100991.75;;;17.58;nan
39265;BME280;42646;51.910;7.724;2023-06-10T03:07:12;100991.09;;;17.56;nan
39265;BME280;42646;51.910;7.724;2023-06-10T03:09:40;100992.13;;;17.55;nan
39265;BME280;42646;51.910;7.724;2023-06-10T03:12:12;100986.22;;;17.52;nan
39265;BME280;42646;51.910;7.724;2023-06-10T03:14:46;100990.28;;;17.48;nan
39265;BME280;42646;51.910;7.724;2023-06-10T03:17:40;100992.66;;;17.43;nan
39265;BME280;42646;51.910;7.724;2023-06-10T03:20:09;100993.00;;;17.40;nan
39265;BME280;42646;51.910;7.724;2023-06-10T03:22:40;100993.34;;;17.36;nan
39265;BME280;42646;51.910;7.724;2023-06-10T03:25:09;100986.66;;;17.32;nan
39265;BME280;42646;51.910;7.724;2023-06-10T03:27:44;100991.53;;;17.29;nan
39265;BME280;42646;51.910;7.724;2023-06-10T03:30:14;100997.44;;;17.24;nan
39265;BME280;42646;51.910;7.724;2023-06-10T03:32:44;101000.97;;;17.25;nan
39265;BME280;42646;51.910;7.724;2023-06-10T03:35:18;101003.16;;;17.21;nan
39265;BME280;42646;51.910;7.724;2023-06-10T03:37:46;101002.66;;;17.18;nan
39265;BME280;42646;51.910;7.724;2023-06-10T03:40:14;101004.69;;;17.16;nan
39265;BME280;42646;51.910;7.724;2023-06-10T03:42:44;101007.72;;;17.13;nan
39265;BME280;42646;51.910;7.724;2023-06-10T03:45:16;101003.53;;;17.10;nan
39265;BME280;42646;51.910;7.724;2023-06-10T03:47:46;101008.06;;;17.09;nan
39265;BME280;42646;51.910;7.724;2023-06-10T03:50:16;101004.56;;;17.09;nan
39265;BME280;42646;51.910;7.724;2023-06-10T03:52:45;101005.56;;;17.08;nan
39265;BME280;42646;51.910;7.724;2023-06-10T03:55:14;101005.56;;;17.08;nan
39265;BME280;42646;51.910;7.724;2023-06-10T03:57:44;101007.25;;;17.09;nan
39265;BME280;42646;51.910;7.724;2023-06-10T04:00:13;101007.56;;;17.06;nan
39265;BME280;42646;51.910;7.724;2023-06-10T04:02:44;101008.41;;;17.06;nan
39265;BME280;42646;51.910;7.724;2023-06-10T04:05:24;101009.25;;;17.07;nan
39265;BME280;42646;51.910;7.724;2023-06-10T04:07:53;101013.97;;;17.05;nan
39265;BME280;42646;51.910;7.724;2023-06-10T04:10:20;101006.06;;;17.03;nan
39265;BME280;42646;51.910;7.724;2023-06-10T04:12:48;100998.00;;;17.03;nan
39265;BME280;42646;51.910;7.724;2023-06-10T04:15:17;101012.13;;;17.05;nan
39265;BME280;42646;51.910;7.724;2023-06-10T04:17:47;101008.59;;;17.05;nan
39265;BME280;42646;51.910;7.724;2023-06-10T04:20:18;101006.06;;;17.03;nan
39265;BME280;42646;51.910;7.724;2023-06-10T04:22:47;101005.72;;;17.06;nan
39265;BME280;42646;51.910;7.724;2023-06-10T04:25:43;101014.28;;;17.10;nan
39265;BME280;42646;51.910;7.724;2023-06-10T04:28:12;101003.53;;;17.10;nan
39265;BME280;42646;51.910;7.724;2023-06-10T04:30:43;101009.56;;;17.12;nan
39265;BME280;42646;51.910;7.724;2023-06-10T04:33:15;101016.47;;;17.15;nan
39265;BME280;42646;51.910;7.724;2023-06-10T04:35:43;101009.91;;;17.17;nan
39265;BME280;42646;51.910;7.724;2023-06-10T04:38:13;101008.72;;;17.20;nan
39265;BME280;42646;51.910;7.724;2023-06-10T04:40:42;101011.56;;;17.18;nan
39265;BME280;42646;51.910;7.724;2023-06-10T04:43:12;101013.09;;;17.21;nan
39265;BME280;42646;51.910;7.724;2023-06-10T04:45:45;101012.91;;;17.22;nan
39265;BME280;42646;51.910;7.724;2023-06-10T04:48:15;101019.63;;;17.26;nan
39265;BME280;42646;51.910;7.724;2023-06-10T04:50:43;101019.09;;;17.31;nan
39265;BME280;42646;51.910;7.724;2023-06-10T04:53:10;101025.63;;;17.36;nan
39265;BME280;42646;51.910;7.724;2023-06-10T04:55:43;101020.09;;;17.38;nan
39265;BME280;42646;51.910;7.724;2023-06-10T04:58:12;101017.22;;;17.40;nan
39265;BME280;42646;51.910;7.724;2023-06-10T05:00:41;101025.75;;;17.43;nan
39265;BME280;42646;51.910;7.724;2023-06-10T05:03:10;101026.09;;;17.48;nan
39265;BME280;42646;51.910;7.724;2023-06-10T05:05:39;101022.69;;;17.54;nan
39265;BME280;42646;51.910;7.724;2023-06-10T05:08:07;101020.00;;;17.54;nan
39265;BME280;42646;51.910;7.724;2023-06-10T05:10:36;101026.53;;;17.60;nan
39265;BME280;42646;51.910;7.724;2023-06-10T05:13:03;101020.63;;;17.65;nan
39265;BME280;42646;51.910;7.724;2023-06-10T05:15:31;101021.97;;;17.69;nan
39265;BME280;42646;51.910;7.724;2023-06-10T05:17:59;101024.84;;;17.75;nan
39265;BME280;42646;51.910;7.724;2023-06-10T05:20:29;101030.72;;;17.79;nan
39265;BME280;42646;51.910;7.724;2023-06-10T05:22:58;101034.53;;;17.84;nan
39265;BME280;42646;51.910;7.724;2023-06-10T05:25:26;101030.66;;;17.87;nan
39265;BME280;42646;51.910;7.724;2023-06-10T05:27:54;101026.59;;;17.91;nan
39265;BME280;42646;51.910;7.724;2023-06-10T05:30:22;101020.66;;;17.96;nan
39265;BME280;42646;51.910;7.724;2023-06-10T05:32:51;101029.56;;;18.04;nan
39265;BME280;42646;51.910;7.724;2023-06-10T05:35:20;101028.31;;;18.15;nan
39265;BME280;42646;51.910;7.724;2023-06-10T05:37:48;101026.59;;;18.14;nan
39265;BME280;42646;51.910;7.724;2023-06-10T05:40:19;101027.41;;;18.23;nan
39265;BME280;42646;51.910;7.724;2023-06-10T05:42:46;101030.41;;;18.28;nan
39265;BME280;42646;51.910;7.724;2023-06-10T05:45:15;101032.38;;;18.34;nan
39265;BME280;42646;51.910;7.724;2023-06-10T05:47:42;101028.59;;;18.43;nan
39265;BME280;42646;51.910;7.724;2023-06-10T05:50:39;101027.13;;;18.55;nan
39265;BME280;42646;51.910;7.724;2023-06-10T05:53:14;101035.16;;;18.63;nan
39265;BME280;42646;51.910;7.724;2023-06-10T05:55:45;101032.91;;;18.75;nan
39265;BME280;42646;51.910;7.724;2023-06-10T05:58:14;101038.03;;;18.85;nan
39265;BME280;42646;51.910;7.724;2023-06-10T06:00:41;101033.13;;;18.88;nan
39265;BME280;42646;51.910;7.724;2023-06-10T06:03:10;101041.22;;;19.03;nan
39265;BME280;42646;51.910;7.724;2023-06-10T06:05:40;101035.81;;;19.03;nan
39265;BME280;42646;51.910;7.724;2023-06-10T06:08:09;101035.00;;;19.17;nan
39265;BME280;42646;51.910;7.724;2023-06-10T06:10:38;101038.81;;;19.23;nan
39265;BME280;42646;51.910;7.724;2023-06-10T06:13:07;101040.03;;;19.35;nan
39265;BME280;42646;51.910;7.724;2023-06-10T06:15:35;101040.97;;;19.42;nan
39265;BME280;42646;51.910;7.724;2023-06-10T06:18:04;101039.25;;;19.56;nan
39265;BME280;42646;51.910;7.724;2023-06-10T06:20:33;101040.31;;;19.70;nan
39265;BME280;42646;51.910;7.724;2023-06-10T06:23:00;101036.94;;;19.83;nan
39265;BME280;42646;51.910;7.724;2023-06-10T06:25:29;101036.19;;;19.89;nan
39265;BME280;42646;51.910;7.724;2023-06-10T06:27:56;101035.28;;;20.03;nan
39265;BME280;42646;51.910;7.724;2023-06-10T06:30:25;101038.06;;;20.10;nan
39265;BME280;42646;51.910;7.724;2023-06-10T06:32:53;101041.56;;;20.25;nan
39265;BME280;42646;51.910;7.724;2023-06-10T06:35:22;101033.78;;;20.37;nan
39265;BME280;42646;51.910;7.724;2023-06-10T06:37:50;101036.00;;;20.48;nan
39265;BME280;42646;51.910;7.724;2023-06-10T06:40:24;101036.91;;;20.55;nan
39265;BME280;42646;51.910;7.724;2023-06-10T06:42:53;101032.63;;;20.67;nan
39265;BME280;42646;51.910;7.724;2023-06-10T06:45:29;101037.50;;;20.78;nan
39265;BME280;42646;51.910;7.724;2023-06-10T06:47:57;101038.06;;;20.95;nan
39265;BME280;42646;51.910;7.724;2023-06-10T06:50:28;101036.72;;;21.13;nan
39265;BME280;42646;51.910;7.724;2023-06-10T06:52:56;101030.28;;;21.14;nan
39265;BME280;42646;51.910;7.724;2023-06-10T06:55:24;101038.13;;;21.30;nan
39265;BME280;42646;51.910;7.724;2023-06-10T06:57:52;101038.97;;;21.37;nan
39265;BME280;42646;51.910;7.724;2023-06-10T07:00:21;101037.59;;;21.48;nan
39265;BME280;42646;51.910;7.724;2023-06-10T07:02:52;101042.63;;;21.64;nan
39265;BME280;42646;51.910;7.724;2023-06-10T07:05:20;101041.81;;;21.64;nan
39265;BME280;42646;51.910;7.724;2023-06-10T07:07:47;101035.22;;;21.79;nan
39265;BME280;42646;51.910;7.724;2023-06-10T07:10:23;101044.44;;;21.98;nan
39265;BME280;42646;51.910;7.724;2023-06-10T07:12:51;101042.44;;;22.13;nan
39265;BME280;42646;51.910;7.724;2023-06-10T07:15:19;101042.69;;;22.25;nan
39265;BME280;42646;51.910;7.724;2023-06-10T07:17:47;101043.53;;;22.39;nan
39265;BME280;42646;51.910;7.724;2023-06-10T07:20:18;101044.38;;;22.53;nan
39265;BME280;42646;51.910;7.724;2023-06-10T07:22:45;101045.84;;;22.62;nan
39265;BME280;42646;51.910;7.724;2023-06-10T07:25:38;101047.50;;;22.70;nan
39265;BME280;42646;51.910;7.724;2023-06-10T07:28:07;101049.38;;;22.69;nan
39265;BME280;42646;51.910;7.724;2023-06-10T07:30:35;101045.03;;;22.88;nan
39265;BME280;42646;51.910;7.724;2023-06-10T07:33:04;101048.16;;;22.98;nan
39265;BME280;42646;51.910;7.724;2023-06-10T07:35:35;101048.13;;;23.11;nan
39265;BME280;42646;51.910;7.724;2023-06-10T07:38:03;101047.28;;;23.24;nan
39265;BME280;42646;51.910;7.724;2023-06-10T07:40:31;101044.13;;;23.34;nan
39265;BME280;42646;51.910;7.724;2023-06-10T07:43:01;101034.28;;;23.46;nan
39265;BME280;42646;51.910;7.724;2023-06-10T07:45:28;101039.47;;;23.61;nan
39265;BME280;42646;51.910;7.724;2023-06-10T07:47:56;101038.41;;;23.68;nan
39265;BME280;42646;51.910;7.724;2023-06-10T07:50:24;101035.25;;;23.78;nan
39265;BME280;42646;51.910;7.724;2023-06-10T07:52:53;101026.81;;;23.93;nan
39265;BME280;42646;51.910;7.724;2023-06-10T07:55:22;101023.63;;;24.03;nan
39265;BME280;42646;51.910;7.724;2023-06-10T07:57:53;101029.63;;;24.11;nan
39265;BME280;42646;51.910;7.724;2023-06-10T08:00:21;101034.53;;;24.28;nan
39265;BME280;42646;51.910;7.724;2023-06-10T08:02:49;101028.44;;;24.39;nan
39265;BME280;42646;51.910;7.724;2023-06-10T08:05:18;101031.28;;;24.50;nan
39265;BME280;42646;51.910;7.724;2023-06-10T08:07:48;101042.75;;;24.52;nan
39265;BME280;42646;51.910;7.724;2023-06-10T08:10:17;101039.44;;;24.50;nan
39265;BME280;42646;51.910;7.724;2023-06-10T08:12:45;101042.44;;;24.67;nan
39265;BME280;42646;51.910;7.724;2023-06-10T08:15:13;101040.72;;;24.73;nan
39265;BME280;42646;51.910;7.724;2023-06-10T08:17:41;101038.84;;;24.73;nan
39265;BME280;42646;51.910;7.724;2023-06-10T08:20:09;101042.09;;;24.82;nan
39265;BME280;42646;51.910;7.724;2023-06-10T08:22:39;101049.53;;;24.93;nan
39265;BME280;42646;51.910;7.724;2023-06-10T08:25:08;101047.13;;;25.10;nan
39265;BME280;42646;51.910;7.724;2023-06-10T08:27:37;101051.66;;;25.16;nan
39265;BME280;42646;51.910;7.724;2023-06-10T08:30:07;101049.19;;;25.33;nan
39265;BME280;42646;51.910;7.724;2023-06-10T08:32:36;101043.59;;;25.46;nan
39265;BME280;42646;51.910;7.724;2023-06-10T08:35:04;101048.81;;;25.48;nan
39265;BME280;42646;51.910;7.724;2023-06-10T08:37:32;101049.09;;;25.58;nan
39265;BME280;42646;51.910;7.724;2023-06-10T08:40:00;101049.41;;;25.68;nan
39265;BME280;42646;51.910;7.724;2023-06-10T08:42:33;101046.78;;;25.80;nan
39265;BME280;42646;51.910;7.724;2023-06-10T08:45:05;101042.56;;;25.96;nan
39265;BME280;42646;51.910;7.724;2023-06-10T08:47:39;101047.72;;;26.04;nan
39265;BME280;42646;51.910;7.724;2023-06-10T08:50:11;101046.19;;;26.08;nan
39265;BME280;42646;51.910;7.724;2023-06-10T08:52:42;101044.31;;;26.20;nan
39265;BME280;42646;51.910;7.724;2023-06-10T08:55:14;101040.50;;;26.09;nan
39265;BME280;42646;51.910;7.724;2023-06-10T08:57:44;101041.47;;;26.15;nan
39265;BME280;42646;51.910;7.724;2023-06-10T09:00:19;101041.59;;;26.20;nan
39265;BME280;42646;51.910;7.724;2023-06-10T09:02:48;101041.47;;;26.15;nan
39265;BME280;42646;51.910;7.724;2023-06-10T09:05:17;101043.78;;;26.30;nan
39265;BME280;42646;51.910;7.724;2023-06-10T09:07:47;101040.94;;;26.36;nan
39265;BME280;42646;51.910;7.724;2023-06-10T09:10:15;101037.91;;;26.56;nan
39265;BME280;42646;51.910;7.724;2023-06-10T09:12:43;101040.78;;;26.61;nan
39265;BME280;42646;51.910;7.724;2023-06-10T09:15:12;101033.44;;;26.74;nan
39265;BME280;42646;51.910;7.724;2023-06-10T09:17:43;101042.81;;;26.89;nan
39265;BME280;42646;51.910;7.724;2023-06-10T09:20:11;101036.06;;;26.80;nan
39265;BME280;42646;51.910;7.724;2023-06-10T09:23:03;101038.81;;;26.80;nan
39265;BME280;42646;51.910;7.724;2023-06-10T09:25:36;101034.75;;;26.95;nan
39265;BME280;42646;51.910;7.724;2023-06-10T09:28:04;101035.34;;;26.97;nan
39265;BME280;42646;51.910;7.724;2023-06-10T09:30:34;101029.34;;;27.06;nan
39265;BME280;42646;51.910;7.724;2023-06-10T09:33:11;101034.53;;;27.20;nan
39265;BME280;42646;51.910;7.724;2023-06-10T09:35:45;101028.50;;;27.18;nan
39265;BME280;42646;51.910;7.724;2023-06-10T09:38:15;101023.81;;;27.41;nan
39265;BME280;42646;51.910;7.724;2023-06-10T09:40:50;101026.06;;;27.45;nan
39265;BME280;42646;51.910;7.724;2023-06-10T09:43:19;101035.47;;;27.25;nan
39265;BME280;42646;51.910;7.724;2023-06-10T09:45:48;101032.59;;;27.43;nan
39265;BME280;42646;51.910;7.724;2023-06-10T09:48:19;101022.25;;;27.57;nan
39265;BME280;42646;51.910;7.724;2023-06-10T09:50:48;101027.81;;;27.51;nan
39265;BME280;42646;51.910;7.724;2023-06-10T09:53:17;101030.06;;;27.65;nan
39265;BME280;42646;51.910;7.724;2023-06-10T09:55:44;101024.34;;;27.79;nan
39265;BME280;42646;51.910;7.724;2023-06-10T09:58:12;101030.94;;;27.94;nan
39265;BME280;42646;51.910;7.724;2023-06-10T10:00:40;101028.94;;;27.90;nan
39265;BME280;42646;51.910;7.724;2023-06-10T10:03:10;101022.22;;;27.98;nan
39265;BME280;42646;51.910;7.724;2023-06-10T10:05:58;101031.47;;;28.08;nan
39265;BME280;42646;51.910;7.724;2023-06-10T10:08:27;101037.66;;;28.04;nan
39265;BME280;42646;51.910;7.724;2023-06-10T10:10:56;101028.47;;;28.10;nan
39265;BME280;42646;51.910;7.724;2023-06-10T10:13:26;101023.94;;;28.15;nan
39265;BME280;42646;51.910;7.724;2023-06-10T10:15:56;101023.81;;;28.39;nan
39265;BME280;42646;51.910;7.724;2023-06-10T10:18:29;101028.81;;;28.42;nan
39265;BME280;42646;51.910;7.724;2023-06-10T10:21:01;101024.75;;;28.44;nan
39265;BME280;42646;51.910;7.724;2023-06-10T10:23:38;101020.31;;;28.27;nan
39265;BME280;42646;51.910;7.724;2023-06-10T10:26:09;101023.25;;;28.37;nan
39265;BME280;42646;51.910;7.724;2023-06-10T10:28:41;101026.25;;;28.35;nan
39265;BME280;42646;51.910;7.724;2023-06-10T10:31:16;101022.03;;;28.61;nan
39265;BME280;42646;51.910;7.724;2023-06-10T10:33:52;101030.06;;;28.51;nan
39265;BME280;42646;51.910;7.724;2023-06-10T10:36:25;101026.16;;;28.64;nan
39265;BME280;42646;51.910;7.724;2023-06-10T10:38:54;101026.84;;;28.71;nan
39265;BME280;42646;51.910;7.724;2023-06-10T10:41:24;101015.47;;;28.79;nan
39265;BME280;42646;51.910;7.724;2023-06-10T10:43:54;101020.75;;;28.86;nan
39265;BME280;42646;51.910;7.724;2023-06-10T10:46:22;101018.38;;;28.72;nan
39265;BME280;42646;51.910;7.724;2023-06-10T10:48:52;101021.34;;;28.88;nan
39265;BME280;42646;51.910;7.724;2023-06-10T10:51:22;101025.22;;;28.92;nan
39265;BME280;42646;51.910;7.724;2023-06-10T10:54:13;101024.41;;;28.91;nan
39265;BME280;42646;51.910;7.724;2023-06-10T10:57:15;101026.69;;;28.94;nan
39265;BME280;42646;51.910;7.724;2023-06-10T10:59:54;101021.53;;;28.98;nan
39265;BME280;42646;51.910;7.724;2023-06-10T11:02:35;101022.94;;;28.84;nan
39265;BME280;42646;51.910;7.724;2023-06-10T11:05:06;101022.41;;;28.87;nan
39265;BME280;42646;51.910;7.724;2023-06-10T11:07:35;101022.13;;;29.00;nan
39265;BME280;42646;51.910;7.724;2023-06-10T11:10:08;101012.88;;;28.89;nan
39265;BME280;42646;51.910;7.724;2023-06-10T11:12:51;101010.13;;;28.89;nan
39265;BME280;42646;51.910;7.724;2023-06-10T11:15:20;101012.91;;;28.72;nan
39265;BME280;42646;51.910;7.724;2023-06-10T11:18:13;101005.91;;;28.82;nan
39265;BME280;42646;51.910;7.724;2023-06-10T11:20:59;101002.19;;;28.88;nan
39265;BME280;42646;51.910;7.724;2023-06-10T11:23:38;100997.19;;;29.02;nan
39265;BME280;42646;51.910;7.724;2023-06-10T11:26:17;100997.00;;;29.08;nan
39265;BME280;42646;51.910;7.724;2023-06-10T11:29:09;101004.59;;;29.01;nan
39265;BME280;42646;51.910;7.724;2023-06-10T11:31:41;101007.34;;;29.23;nan
39265;BME280;42646;51.910;7.724;2023-06-10T11:34:13;100997.81;;;29.25;nan
39265;BME280;42646;51.910;7.724;2023-06-10T11:36:43;100994.72;;;29.22;nan
39265;BME280;42646;51.910;7.724;2023-06-10T11:39:13;100996.44;;;29.28;nan
39265;BME280;42646;51.910;7.724;2023-06-10T11:41:43;100995.31;;;29.46;nan
39265;BME280;42646;51.910;7.724;2023-06-10T11:44:11;100992.06;;;29.49;nan
39265;BME280;42646;51.910;7.724;2023-06-10T11:46:48;100995.56;;;29.44;nan
39265;BME280;42646;51.910;7.724;2023-06-10T11:49:20;100990.91;;;29.45;nan
39265;BME280;42646;51.910;7.724;2023-06-10T11:51:48;100996.53;;;29.33;nan
39265;BME280;42646;51.910;7.724;2023-06-10T11:54:18;100991.81;;;29.50;nan
39265;BME280;42646;51.910;7.724;2023-06-10T11:56:47;100992.56;;;29.46;nan
39265;BME280;42646;51.910;7.724;2023-06-10T11:59:15;100989.25;;;29.44;nan
39265;BME280;42646;51.910;7.724;2023-06-10T12:01:45;100988.81;;;29.30;nan
39265;BME280;42646;51.910;7.724;2023-06-10T12:04:14;100984.28;;;29.41;nan
39265;BME280;42646;51.910;7.724;2023-06-10T12:06:45;100985.00;;;29.31;nan
39265;BME280;42646;51.910;7.724;2023-06-10T12:09:17;100977.00;;;29.51;nan
39265;BME280;42646;51.910;7.724;2023-06-10T12:11:54;100973.06;;;29.42;nan
39265;BME280;42646;51.910;7.724;2023-06-10T12:14:50;100981.78;;;29.39;nan
39265;BME280;42646;51.910;7.724;2023-06-10T12:17:20;100985.13;;;29.41;nan
39265;BME280;42646;51.910;7.724;2023-06-10T12:19:50;100974.41;;;29.62;nan
39265;BME280;42646;51.910;7.724;2023-06-10T12:22:18;100976.41;;;29.66;nan
39265;BME280;42646;51.910;7.724;2023-06-10T12:24:58;100976.84;;;29.58;nan
39265;BME280;42646;51.910;7.724;2023-06-10T12:27:29;100982.78;;;29.72;nan
39265;BME280;42646;51.910;7.724;2023-06-10T12:30:23;100987.22;;;29.78;nan
39265;BME280;42646;51.910;7.724;2023-06-10T12:32:53;100982.13;;;29.65;nan
39265;BME280;42646;51.910;7.724;2023-06-10T12:35:23;100986.97;;;29.36;nan
39265;BME280;42646;51.910;7.724;2023-06-10T12:37:55;100975.44;;;29.56;nan
39265;BME280;42646;51.910;7.724;2023-06-10T12:40:27;100968.66;;;29.63;nan
39265;BME280;42646;51.910;7.724;2023-06-10T12:43:01;100966.75;;;29.64;nan
39265;BME280;42646;51.910;7.724;2023-06-10T12:45:31;100971.59;;;29.78;nan
39265;BME280;42646;51.910;7.724;2023-06-10T12:48:06;100970.56;;;29.85;nan
39265;BME280;42646;51.910;7.724;2023-06-10T12:50:36;100959.00;;;29.83;nan
39265;BME280;42646;51.910;7.724;2023-06-10T12:53:07;100969.13;;;29.82;nan
39265;BME280;42646;51.910;7.724;2023-06-10T12:55:35;100959.69;;;29.95;nan
39265;BME280;42646;51.910;7.724;2023-06-10T12:58:06;100962.44;;;29.95;nan
39265;BME280;42646;51.910;7.724;2023-06-10T13:00:33;100960.34;;;30.07;nan
39265;BME280;42646;51.910;7.724;2023-06-10T13:03:27;100955.56;;;30.19;nan
39265;BME280;42646;51.910;7.724;2023-06-10T13:05:56;100954.50;;;30.25;nan
39265;BME280;42646;51.910;7.724;2023-06-10T13:08:24;100955.59;;;30.24;nan
39265;BME280;42646;51.910;7.724;2023-06-10T13:11:16;100957.94;;;30.11;nan
39265;BME280;42646;51.910;7.724;2023-06-10T13:13:49;100947.69;;;30.06;nan
39265;BME280;42646;51.910;7.724;2023-06-10T13:16:17;100957.44;;;29.92;nan
39265;BME280;42646;51.910;7.724;2023-06-10T13:18:45;100952.44;;;30.11;nan
39265;BME280;42646;51.910;7.724;2023-06-10T13:21:15;100950.72;;;30.31;nan
39265;BME280;42646;51.910;7.724;2023-06-10T13:23:44;100956.88;;;30.49;nan
39265;BME280;42646;51.910;7.724;2023-06-10T13:26:13;100948.69;;;30.54;nan
39265;BME280;42646;51.910;7.724;2023-06-10T13:28:41;100952.31;;;30.65;nan
39265;BME280;42646;51.910;7.724;2023-06-10T13:31:10;100942.97;;;30.61;nan